createdAt,value
2023-07-08T00:01:16.928Z,11.28
2023-07-08T00:03:44.596Z,11.28
2023-07-08T00:06:16.053Z,11.27
2023-07-08T00:08:42.824Z,11.25
2023-07-08T00:11:12.358Z,11.24
2023-07-08T00:13:39.581Z,11.21
2023-07-08T00:16:11.354Z,11.19
2023-07-08T00:18:38.307Z,11.17
2023-07-08T00:21:09.874Z,11.15
2023-07-08T00:23:37.655Z,11.11
2023-07-08T00:26:12.180Z,11.06
2023-07-08T00:28:38.978Z,11.00
2023-07-08T00:31:10.934Z,10.94
2023-07-08T00:33:37.885Z,10.89
2023-07-08T00:36:11.370Z,10.86
2023-07-08T00:38:38.395Z,10.85
2023-07-08T00:41:12.472Z,10.86
2023-07-08T00:43:47.895Z,10.87
2023-07-08T00:46:26.363Z,10.87
2023-07-08T00:48:59.011Z,10.89
2023-07-08T00:51:25.848Z,10.85
2023-07-08T00:53:52.730Z,10.79
2023-07-08T00:56:24.881Z,10.77
2023-07-08T00:59:04.101Z,10.76
2023-07-08T01:01:36.229Z,10.73
2023-07-08T01:04:07.791Z,10.68
2023-07-08T01:06:41.334Z,10.64
2023-07-08T01:09:11.436Z,10.63
2023-07-08T01:11:40.738Z,10.63
2023-07-08T01:14:13.769Z,10.65
2023-07-08T01:16:43.667Z,10.68
2023-07-08T01:19:18.363Z,10.70
2023-07-08T01:22:04.488Z,10.74
2023-07-08T01:24:34.418Z,10.75
2023-07-08T01:27:03.123Z,10.76
2023-07-08T01:29:31.578Z,10.75
2023-07-08T01:31:59.941Z,10.70
2023-07-08T01:34:26.832Z,10.65
2023-07-08T01:36:58.209Z,10.60
2023-07-08T01:39:26.985Z,10.56
2023-07-08T01:41:54.868Z,10.53
2023-07-08T01:44:37.483Z,10.53
2023-07-08T01:47:18.173Z,10.50
2023-07-08T01:49:48.080Z,10.46
2023-07-08T01:52:18.238Z,10.39
2023-07-08T01:54:45.097Z,10.32
2023-07-08T01:57:11.908Z,10.28
2023-07-08T01:59:38.729Z,10.25
2023-07-08T02:02:05.583Z,10.22
2023-07-08T02:04:32.617Z,10.21
2023-07-08T02:07:01.326Z,10.18
2023-07-08T02:09:29.598Z,10.10
2023-07-08T02:11:56.807Z,10.01
2023-07-08T02:14:24.127Z,9.97
2023-07-08T02:16:51.953Z,9.94
2023-07-08T02:19:20.568Z,9.92
2023-07-08T02:21:48.120Z,9.93
2023-07-08T02:24:18.099Z,9.96
2023-07-08T02:26:48.506Z,9.96
2023-07-08T02:29:15.388Z,9.96
2023-07-08T02:31:42.249Z,9.97
2023-07-08T02:34:09.064Z,9.96
2023-07-08T02:36:36.005Z,9.96
2023-07-08T02:39:02.931Z,9.95
2023-07-08T02:41:29.723Z,9.94
2023-07-08T02:43:56.530Z,9.95
2023-07-08T02:46:23.417Z,9.98
2023-07-08T02:48:50.303Z,10.01
2023-07-08T02:51:17.184Z,10.03
2023-07-08T02:53:44.624Z,10.03
2023-07-08T02:56:11.471Z,10.01
2023-07-08T02:58:38.386Z,9.97
2023-07-08T03:01:07.732Z,9.93
2023-07-08T03:03:36.342Z,9.90
2023-07-08T03:06:06.679Z,9.87
2023-07-08T03:08:33.736Z,9.84
2023-07-08T03:11:03.454Z,9.81
2023-07-08T03:13:31.322Z,9.80
2023-07-08T03:16:00.370Z,9.77
2023-07-08T03:18:28.030Z,9.80
2023-07-08T03:20:59.149Z,9.83
2023-07-08T03:23:27.344Z,9.86
2023-07-08T03:25:54.583Z,9.89
2023-07-08T03:28:23.380Z,9.91
2023-07-08T03:30:54.218Z,9.93
2023-07-08T03:33:22.083Z,9.92
2023-07-08T03:35:49.582Z,9.97
2023-07-08T03:38:16.872Z,10.00
2023-07-08T03:40:43.809Z,10.03
2023-07-08T03:43:10.637Z,10.07
2023-07-08T03:45:38.131Z,10.16
2023-07-08T03:48:05.827Z,10.27
2023-07-08T03:50:33.231Z,10.36
2023-07-08T03:53:00.153Z,10.43
2023-07-08T03:55:29.788Z,10.53
2023-07-08T03:57:57.848Z,10.61
2023-07-08T04:00:25.420Z,10.69
2023-07-08T04:02:52.300Z,10.78
2023-07-08T04:05:24.140Z,10.87
2023-07-08T04:07:51.802Z,11.00
2023-07-08T04:10:18.629Z,11.11
2023-07-08T04:12:45.584Z,11.24
2023-07-08T04:15:14.110Z,11.34
2023-07-08T04:17:46.461Z,11.45
2023-07-08T04:20:17.180Z,11.59
2023-07-08T04:22:44.091Z,11.73
2023-07-08T04:25:13.130Z,11.87
2023-07-08T04:27:40.900Z,12.03
2023-07-08T04:30:08.849Z,12.20
2023-07-08T04:32:38.815Z,12.38
2023-07-08T04:35:06.103Z,12.55
2023-07-08T04:37:33.175Z,12.70
2023-07-08T04:40:01.552Z,12.86
2023-07-08T04:42:29.922Z,13.02
2023-07-08T04:44:56.818Z,13.21
2023-07-08T04:47:23.838Z,13.40
2023-07-08T04:49:50.741Z,13.61
2023-07-08T04:52:17.682Z,13.84
2023-07-08T04:54:44.710Z,14.06
2023-07-08T04:57:11.612Z,14.31
2023-07-08T04:59:38.515Z,14.64
2023-07-08T05:02:05.469Z,15.06
2023-07-08T05:04:32.355Z,15.58
2023-07-08T05:06:59.172Z,16.15
2023-07-08T05:09:27.389Z,16.73
2023-07-08T05:11:54.618Z,17.35
2023-07-08T05:14:21.542Z,17.86
2023-07-08T05:16:48.939Z,18.25
2023-07-08T05:19:16.025Z,18.54
2023-07-08T05:21:44.344Z,18.77
2023-07-08T05:24:11.207Z,18.98
2023-07-08T05:26:38.347Z,19.17
2023-07-08T05:29:06.569Z,19.36
2023-07-08T05:31:46.522Z,19.53
2023-07-08T05:34:15.685Z,19.72
2023-07-08T05:36:42.573Z,19.88
2023-07-08T05:39:09.347Z,20.05
2023-07-08T05:41:36.175Z,20.21
2023-07-08T05:44:03.227Z,20.36
2023-07-08T05:46:30.332Z,20.54
2023-07-08T05:48:59.595Z,20.72
2023-07-08T05:51:28.377Z,20.91
2023-07-08T05:53:55.216Z,21.06
2023-07-08T05:56:21.949Z,21.19
2023-07-08T05:58:48.817Z,21.35
2023-07-08T06:01:15.897Z,21.50
2023-07-08T06:03:42.805Z,21.65
2023-07-08T06:06:10.440Z,21.79
2023-07-08T06:08:37.416Z,21.97
2023-07-08T06:11:04.420Z,22.20
2023-07-08T06:13:32.261Z,22.43
2023-07-08T06:15:59.204Z,22.72
2023-07-08T06:18:26.278Z,23.06
2023-07-08T06:20:55.667Z,23.45
2023-07-08T06:23:23.072Z,23.79
2023-07-08T06:25:50.320Z,24.08
2023-07-08T06:28:17.172Z,24.46
2023-07-08T06:30:44.659Z,24.86
2023-07-08T06:33:12.768Z,25.26
2023-07-08T06:35:41.309Z,25.62
2023-07-08T06:38:08.993Z,25.99
2023-07-08T06:40:36.294Z,26.28
2023-07-08T06:43:04.967Z,26.47
2023-07-08T06:45:38.883Z,26.58
2023-07-08T06:48:05.974Z,26.75
2023-07-08T06:50:33.078Z,26.90
2023-07-08T06:52:59.908Z,27.02
2023-07-08T06:55:27.020Z,27.20
2023-07-08T06:57:54.220Z,27.43
2023-07-08T07:00:21.201Z,27.71
2023-07-08T07:02:48.034Z,28.02
2023-07-08T07:05:15.003Z,28.30
2023-07-08T07:07:41.802Z,28.52
2023-07-08T07:10:09.311Z,28.66
2023-07-08T07:12:36.723Z,28.70
2023-07-08T07:15:04.895Z,28.68
2023-07-08T07:17:32.155Z,28.67
2023-07-08T07:19:58.992Z,28.66
2023-07-08T07:22:25.838Z,28.66
2023-07-08T07:24:52.682Z,28.70
2023-07-08T07:27:19.649Z,28.74
2023-07-08T07:29:50.346Z,28.65
2023-07-08T07:32:18.977Z,28.60
2023-07-08T07:34:50.274Z,28.70
2023-07-08T07:37:19.565Z,28.71
2023-07-08T07:39:47.194Z,28.81
2023-07-08T07:42:17.416Z,28.89
2023-07-08T07:44:45.580Z,28.91
2023-07-08T07:47:13.567Z,29.08
2023-07-08T07:49:40.841Z,29.56
2023-07-08T07:52:08.238Z,29.99
2023-07-08T07:54:35.129Z,30.23
2023-07-08T07:57:02.132Z,30.33
2023-07-08T07:59:31.478Z,30.63
2023-07-08T08:01:58.283Z,30.99
2023-07-08T08:04:25.151Z,31.53
2023-07-08T08:06:52.026Z,32.08
2023-07-08T08:09:18.789Z,32.53
2023-07-08T08:11:45.602Z,32.73
2023-07-08T08:14:12.872Z,33.12
2023-07-08T08:16:39.864Z,33.57
2023-07-08T08:19:08.994Z,33.92
2023-07-08T08:21:36.368Z,34.12
2023-07-08T08:24:03.379Z,34.42
2023-07-08T08:26:30.345Z,34.52
2023-07-08T08:28:57.796Z,34.55
2023-07-08T08:31:24.956Z,34.75
2023-07-08T08:33:53.882Z,35.20
2023-07-08T08:36:24.118Z,35.58
2023-07-08T08:38:51.194Z,35.52
2023-07-08T08:41:22.027Z,35.64
2023-07-08T08:43:52.667Z,36.03
2023-07-08T08:46:45.064Z,36.57
2023-07-08T08:49:19.508Z,37.17
2023-07-08T08:51:46.576Z,37.38
2023-07-08T08:54:13.366Z,37.71
2023-07-08T08:56:44.431Z,38.16
2023-07-08T08:59:26.376Z,38.57
2023-07-08T09:01:54.862Z,38.85
2023-07-08T09:04:31.089Z,38.87
2023-07-08T09:07:07.707Z,38.86
2023-07-08T09:09:42.415Z,38.68
2023-07-08T09:12:19.095Z,38.42
2023-07-08T09:14:47.226Z,38.20
2023-07-08T09:17:37.687Z,38.08
2023-07-08T09:20:13.239Z,37.81
2023-07-08T09:22:47.129Z,37.27
2023-07-08T09:25:13.933Z,37.03
2023-07-08T09:27:40.707Z,37.26
2023-07-08T09:30:15.684Z,37.65
2023-07-08T09:32:42.594Z,38.05
2023-07-08T09:35:17.435Z,38.00
2023-07-08T09:37:48.547Z,37.69
2023-07-08T09:40:16.536Z,37.38
2023-07-08T09:42:45.860Z,37.45
2023-07-08T09:45:16.530Z,37.70
2023-07-08T09:47:46.620Z,37.68
2023-07-08T09:50:19.506Z,37.23
2023-07-08T09:52:48.041Z,36.60
2023-07-08T09:55:15.318Z,36.12
2023-07-08T09:57:44.788Z,35.87
2023-07-08T10:00:16.497Z,35.42
2023-07-08T10:02:47.778Z,34.99
2023-07-08T10:05:21.301Z,34.72
2023-07-08T10:07:50.107Z,34.45
2023-07-08T10:10:23.682Z,33.94
2023-07-08T10:12:59.786Z,33.56
2023-07-08T10:15:40.030Z,33.33
2023-07-08T10:18:16.693Z,33.25
2023-07-08T10:20:48.835Z,33.38
2023-07-08T10:23:28.908Z,33.43
2023-07-08T10:26:07.764Z,33.44
2023-07-08T10:28:46.386Z,33.44
2023-07-08T10:31:31.839Z,33.39
2023-07-08T10:33:59.757Z,33.37
2023-07-08T10:36:47.446Z,33.37
2023-07-08T10:39:30.583Z,33.41
2023-07-08T10:42:05.428Z,33.43
2023-07-08T10:44:45.500Z,33.49
2023-07-08T10:47:28.930Z,33.50
2023-07-08T10:50:10.653Z,33.41
2023-07-08T10:52:56.356Z,33.39
2023-07-08T10:55:38.206Z,33.36
2023-07-08T10:58:24.061Z,33.24
2023-07-08T11:01:07.497Z,33.25
2023-07-08T11:04:00.181Z,33.31
2023-07-08T11:06:44.875Z,33.35
2023-07-08T11:09:21.705Z,33.25
2023-07-08T11:12:02.242Z,33.11
2023-07-08T11:14:40.157Z,33.16
2023-07-08T11:17:28.443Z,33.30
2023-07-08T11:20:01.835Z,33.43
2023-07-08T11:22:33.239Z,33.44
2023-07-08T11:25:02.625Z,33.53
2023-07-08T11:27:36.453Z,33.55
2023-07-08T11:30:13.663Z,33.49
2023-07-08T11:32:42.637Z,33.43
2023-07-08T11:35:21.610Z,33.59
2023-07-08T11:37:49.054Z,33.87
2023-07-08T11:40:22.343Z,34.13
2023-07-08T11:42:59.876Z,34.32
2023-07-08T11:45:32.242Z,34.49
2023-07-08T11:48:11.879Z,34.82
2023-07-08T11:50:42.811Z,35.04
2023-07-08T11:53:12.952Z,35.16
2023-07-08T11:55:44.861Z,35.56
2023-07-08T11:58:23.800Z,36.05
2023-07-08T12:01:20.160Z,36.38
2023-07-08T12:03:51.363Z,36.76
2023-07-08T12:06:37.018Z,36.78
2023-07-08T12:09:28.488Z,36.87
2023-07-08T12:12:03.352Z,36.86
2023-07-08T12:14:32.040Z,36.91
2023-07-08T12:16:59.506Z,37.29
2023-07-08T12:19:31.317Z,37.62
2023-07-08T12:21:59.711Z,37.94
2023-07-08T12:24:28.441Z,38.16
2023-07-08T12:26:55.766Z,38.58
2023-07-08T12:29:23.332Z,39.11
2023-07-08T12:31:50.517Z,39.60
2023-07-08T12:34:18.598Z,39.96
2023-07-08T12:36:46.920Z,40.20
2023-07-08T12:39:17.361Z,40.38
2023-07-08T12:41:46.481Z,40.05
2023-07-08T12:44:19.764Z,39.77
2023-07-08T12:46:48.395Z,39.52
2023-07-08T12:49:17.382Z,39.30
2023-07-08T12:51:45.452Z,39.16
2023-07-08T12:54:14.168Z,38.93
2023-07-08T12:56:45.015Z,38.76
2023-07-08T12:59:18.193Z,38.79
2023-07-08T13:01:47.964Z,38.98
2023-07-08T13:04:16.472Z,38.98
2023-07-08T13:06:46.576Z,38.81
2023-07-08T13:09:31.370Z,38.68
2023-07-08T13:14:46.317Z,39.04
2023-07-08T13:17:16.386Z,39.04
2023-07-08T13:19:44.990Z,39.08
2023-07-08T13:22:17.586Z,39.11
2023-07-08T13:24:45.167Z,39.21
2023-07-08T13:27:27.938Z,39.37
2023-07-08T13:29:57.720Z,39.52
2023-07-08T13:32:33.412Z,39.63
2023-07-08T13:35:00.388Z,39.73
2023-07-08T13:37:32.401Z,39.79
2023-07-08T13:39:59.247Z,39.83
2023-07-08T13:42:26.141Z,39.62
2023-07-08T13:44:53.596Z,39.38
2023-07-08T13:47:29.064Z,39.05
2023-07-08T13:50:02.714Z,38.94
2023-07-08T13:52:29.583Z,38.69
2023-07-08T13:55:03.975Z,38.70
2023-07-08T13:58:18.593Z,38.75
2023-07-08T14:00:52.111Z,38.62
2023-07-08T14:03:21.869Z,38.32
2023-07-08T14:05:48.772Z,38.04
2023-07-08T14:08:17.536Z,37.51
2023-07-08T14:10:44.794Z,36.79
2023-07-08T14:13:12.809Z,36.17
2023-07-08T14:15:40.429Z,35.64
2023-07-08T14:18:09.917Z,35.17
2023-07-08T14:20:36.756Z,34.88
2023-07-08T14:23:03.499Z,34.53
2023-07-08T14:25:30.384Z,34.14
2023-07-08T14:27:57.820Z,33.78
2023-07-08T14:30:24.860Z,33.28
2023-07-08T14:32:52.119Z,32.88
2023-07-08T14:35:25.178Z,32.60
2023-07-08T14:37:54.930Z,32.38
2023-07-08T14:40:26.304Z,32.19
2023-07-08T14:42:59.552Z,31.91
2023-07-08T14:45:27.180Z,31.61
2023-07-08T14:47:53.999Z,31.40
2023-07-08T14:50:20.868Z,31.21
2023-07-08T14:52:47.667Z,31.01
2023-07-08T14:55:14.597Z,30.79
2023-07-08T14:57:46.233Z,30.64
2023-07-08T15:00:15.815Z,30.56
2023-07-08T15:02:44.738Z,30.52
2023-07-08T15:05:16.354Z,30.39
2023-07-08T15:07:43.496Z,30.29
2023-07-08T15:10:11.129Z,30.22
2023-07-08T15:12:38.037Z,30.22
2023-07-08T15:15:05.766Z,30.13
2023-07-08T15:17:33.008Z,30.08
2023-07-08T15:20:03.223Z,30.02
2023-07-08T15:22:32.568Z,29.98
2023-07-08T15:25:01.929Z,29.93
2023-07-08T15:27:29.451Z,29.82
2023-07-08T15:29:56.557Z,29.73
2023-07-08T15:32:40.445Z,29.61
2023-07-08T15:35:13.610Z,29.53
2023-07-08T15:37:40.480Z,29.42
2023-07-08T15:40:09.954Z,29.34
2023-07-08T15:42:37.138Z,29.28
2023-07-08T15:45:24.812Z,29.24
2023-07-08T15:47:52.784Z,29.15
2023-07-08T15:50:23.246Z,29.09
2023-07-08T15:52:50.545Z,29.03
2023-07-08T15:55:25.128Z,28.99
2023-07-08T15:57:58.765Z,28.98
2023-07-08T16:00:29.013Z,28.95
2023-07-08T16:03:00.363Z,28.88
2023-07-08T16:05:28.284Z,28.83
2023-07-08T16:07:56.406Z,28.78
2023-07-08T16:10:25.995Z,28.72
2023-07-08T16:12:55.579Z,28.65
2023-07-08T16:15:30.935Z,28.55
2023-07-08T16:17:58.999Z,28.48
2023-07-08T16:20:27.981Z,28.33
2023-07-08T16:22:54.843Z,28.26
2023-07-08T16:25:32.981Z,28.19
2023-07-08T16:28:00.616Z,28.11
2023-07-08T16:30:28.998Z,28.01
2023-07-08T16:32:56.719Z,27.92
2023-07-08T16:35:24.809Z,27.83
2023-07-08T16:37:53.295Z,27.74
2023-07-08T16:40:24.742Z,27.66
2023-07-08T16:42:54.966Z,27.59
2023-07-08T16:45:23.121Z,27.51
2023-07-08T16:47:51.705Z,27.44
2023-07-08T16:50:22.013Z,27.37
2023-07-08T16:52:48.839Z,27.31
2023-07-08T16:55:18.695Z,27.24
2023-07-08T16:57:46.479Z,27.15
2023-07-08T17:00:16.094Z,27.05
2023-07-08T17:02:43.149Z,26.97
2023-07-08T17:05:18.751Z,26.88
2023-07-08T17:07:45.610Z,26.79
2023-07-08T17:10:13.809Z,26.68
2023-07-08T17:12:42.082Z,26.59
2023-07-08T17:15:13.234Z,26.50
2023-07-08T17:17:47.865Z,26.39
2023-07-08T17:20:17.724Z,26.26
2023-07-08T17:22:45.382Z,26.14
2023-07-08T17:25:18.672Z,26.03
2023-07-08T17:27:45.770Z,25.93
2023-07-08T17:30:15.324Z,25.82
2023-07-08T17:32:45.652Z,25.67
2023-07-08T17:35:16.317Z,25.58
2023-07-08T17:37:44.215Z,25.43
2023-07-08T17:40:20.630Z,25.31
2023-07-08T17:42:48.922Z,25.15
2023-07-08T17:45:20.251Z,25.00
2023-07-08T17:47:49.012Z,24.82
2023-07-08T17:50:25.449Z,24.65
2023-07-08T17:52:54.962Z,24.46
2023-07-08T17:55:24.321Z,24.26
2023-07-08T17:57:51.674Z,24.04
2023-07-08T18:00:24.293Z,23.85
2023-07-08T18:02:51.950Z,23.62
2023-07-08T18:05:22.954Z,23.40
2023-07-08T18:07:52.751Z,23.15
2023-07-08T18:10:21.959Z,22.90
2023-07-08T18:12:51.544Z,22.69
2023-07-08T18:15:24.323Z,22.44
2023-07-08T18:17:54.689Z,22.21
2023-07-08T18:20:25.423Z,21.97
2023-07-08T18:22:53.959Z,21.71
2023-07-08T18:25:26.764Z,21.48
2023-07-08T18:27:54.219Z,21.25
2023-07-08T18:30:22.431Z,21.05
2023-07-08T18:32:51.821Z,20.87
2023-07-08T18:35:23.478Z,20.67
2023-07-08T18:37:52.120Z,20.43
2023-07-08T18:40:29.079Z,20.21
2023-07-08T18:43:01.424Z,20.03
2023-07-08T18:45:28.305Z,19.84
2023-07-08T18:47:55.332Z,19.67
2023-07-08T18:50:22.209Z,19.51
2023-07-08T18:52:49.076Z,19.32
2023-07-08T18:55:19.208Z,19.14
2023-07-08T18:57:46.532Z,18.98
2023-07-08T19:00:16.191Z,18.83
2023-07-08T19:02:51.739Z,18.67
2023-07-08T19:05:20.913Z,18.50
2023-07-08T19:07:48.746Z,18.34
2023-07-08T19:10:18.288Z,18.19
2023-07-08T19:12:47.134Z,18.05
2023-07-08T19:15:17.979Z,17.92
2023-07-08T19:17:44.880Z,17.80
2023-07-08T19:20:12.501Z,17.70
2023-07-08T19:22:39.900Z,17.62
2023-07-08T19:25:19.928Z,17.53
2023-07-08T19:27:47.467Z,17.42
2023-07-08T19:30:15.897Z,17.34
2023-07-08T19:32:49.789Z,17.23
2023-07-08T19:35:20.289Z,17.13
2023-07-08T19:37:48.267Z,17.04
2023-07-08T19:40:18.610Z,16.94
2023-07-08T19:42:47.999Z,16.86
2023-07-08T19:45:21.290Z,16.76
2023-07-08T19:47:48.718Z,16.66
2023-07-08T19:50:16.488Z,16.56
2023-07-08T19:52:43.653Z,16.51
2023-07-08T19:55:11.082Z,16.48
2023-07-08T19:57:41.444Z,16.45
2023-07-08T20:00:22.929Z,16.42
2023-07-08T20:02:51.468Z,16.37
2023-07-08T20:05:20.118Z,16.29
2023-07-08T20:07:47.150Z,16.21
2023-07-08T20:10:18.220Z,16.15
2023-07-08T20:12:46.001Z,16.06
2023-07-08T20:15:13.232Z,15.99
2023-07-08T20:17:40.824Z,15.92
2023-07-08T20:20:25.166Z,15.83
2023-07-08T20:22:52.876Z,15.76
2023-07-08T20:25:23.675Z,15.71
2023-07-08T20:27:52.226Z,15.65
2023-07-08T20:30:24.871Z,15.60
2023-07-08T20:32:51.859Z,15.51
2023-07-08T20:35:21.138Z,15.39
2023-07-08T20:37:49.167Z,15.29
2023-07-08T20:40:21.352Z,15.20
2023-07-08T20:42:48.814Z,15.12
2023-07-08T20:45:17.336Z,15.12
2023-07-08T20:47:48.119Z,15.09
2023-07-08T20:50:19.354Z,15.07
2023-07-08T20:52:47.411Z,15.01
2023-07-08T20:55:17.157Z,14.96
2023-07-08T20:57:45.915Z,14.88
2023-07-08T21:00:33.000Z,14.82
2023-07-08T21:03:00.404Z,14.77
2023-07-08T21:05:29.019Z,14.72
2023-07-08T21:07:57.996Z,14.71
2023-07-08T21:10:26.926Z,14.67
2023-07-08T21:12:55.918Z,14.61
2023-07-08T21:15:28.362Z,14.56
2023-07-08T21:17:55.224Z,14.55
2023-07-08T21:20:25.917Z,14.52
2023-07-08T21:22:56.856Z,14.46
2023-07-08T21:25:26.876Z,14.42
2023-07-08T21:27:53.951Z,14.41
2023-07-08T21:30:25.442Z,14.41
2023-07-08T21:32:54.676Z,14.37
2023-07-08T21:35:24.879Z,14.34
2023-07-08T21:37:56.932Z,14.32
2023-07-08T21:40:30.434Z,14.27
2023-07-08T21:42:57.315Z,14.23
2023-07-08T21:45:35.410Z,14.21
2023-07-08T21:48:18.403Z,14.19
2023-07-08T21:50:51.932Z,14.17
2023-07-08T21:53:24.400Z,14.15
2023-07-08T21:55:51.280Z,14.14
2023-07-08T21:58:18.654Z,14.11
2023-07-08T22:00:46.394Z,14.07
2023-07-08T22:03:16.547Z,14.01
2023-07-08T22:05:43.953Z,13.96
2023-07-08T22:08:16.011Z,13.92
2023-07-08T22:10:52.271Z,13.90
2023-07-08T22:13:29.281Z,13.87
2023-07-08T22:15:59.537Z,13.82
2023-07-08T22:18:26.823Z,13.80
2023-07-08T22:20:59.348Z,13.76
2023-07-08T22:23:28.569Z,13.69
2023-07-08T22:25:56.448Z,13.63
2023-07-08T22:28:23.627Z,13.58
2023-07-08T22:30:51.318Z,13.52
2023-07-08T22:33:20.106Z,13.51
2023-07-08T22:35:47.898Z,13.50
2023-07-08T22:38:16.611Z,13.47
2023-07-08T22:40:47.100Z,13.45
2023-07-08T22:43:21.521Z,13.41
2023-07-08T22:45:48.567Z,13.37
2023-07-08T22:48:15.717Z,13.33
2023-07-08T22:50:43.666Z,13.31
2023-07-08T22:53:18.969Z,13.31
2023-07-08T22:55:47.836Z,13.31
2023-07-08T22:58:21.686Z,13.30
2023-07-08T23:00:49.072Z,13.26
2023-07-08T23:03:16.020Z,13.23
2023-07-08T23:05:45.992Z,13.17
2023-07-08T23:08:17.685Z,13.12
2023-07-08T23:10:44.727Z,13.06
2023-07-08T23:13:18.433Z,13.02
2023-07-08T23:15:46.437Z,12.98
2023-07-08T23:18:19.029Z,12.94
2023-07-08T23:20:47.241Z,12.90
2023-07-08T23:23:14.752Z,12.85
2023-07-08T23:25:43.419Z,12.78
2023-07-08T23:28:13.103Z,12.73
2023-07-08T23:30:39.920Z,12.68
2023-07-08T23:33:11.521Z,12.65
2023-07-08T23:35:38.361Z,12.64
2023-07-08T23:38:05.307Z,12.60
2023-07-08T23:40:33.144Z,12.56
2023-07-08T23:42:59.912Z,12.52
2023-07-08T23:45:26.942Z,12.45
2023-07-08T23:47:53.835Z,12.41
2023-07-08T23:50:23.487Z,12.38
2023-07-08T23:52:50.328Z,12.35
2023-07-08T23:55:17.384Z,12.33
2023-07-08T23:57:45.083Z,12.32
